Time;durP1;ratioP1;P1;durP2;ratioP2;P2;SDS_P1;SDS_P2;PMS_P1;PMS_P2;Temp;Humidity;BMP_temperature;BMP_pressure;BME280_temperature;BME280_humidity;BME280_pressure;Samples;Min_cycle;Max_cycle;Signal;HPM_P1;HPM_P2
2022/08/15 00:01:35;;;;;;;;;;;;;;;25.44;45.45;99456.62;5399006;32;34868;-68
2022/08/15 00:04:45;;;;;;;;;;;;;;;25.18;46.32;99465.03;5385246;32;34721;-76
2022/08/15 00:07:52;;;;;;;;;;;;;;;25.65;45.34;99462.22;5416008;32;34144;-76
2022/08/15 00:10:55;;;;;;;;;;;;;;;25.62;45.67;99465.25;5388509;32;33996;-66
2022/08/15 00:14:09;;;;;;;;;;;;;;;25.58;45.75;99472.03;5398434;32;48172;-78
2022/08/15 00:17:20;;;;;;;;;;;;;;;25.45;45.92;99461.03;5382210;32;34938;-73
2022/08/15 00:20:23;;;;;;;;;;;;;;;26.06;44.32;99464.62;5397851;32;34690;-66
2022/08/15 00:23:34;;;;;;;;;;;;;;;25.56;45.66;99474.87;5404858;32;44875;-77
2022/08/15 00:26:38;;;;;;;;;;;;;;;24.99;47.13;99471.62;5398332;32;34066;-76
2022/08/15 00:30:02;;;;;;;;;;;;;;;25.53;45.54;99469.88;5411344;32;34880;-76
2022/08/15 00:33:06;;;;;;;;;;;;;;;25.16;46.78;99465.22;5408467;32;44772;-76
2022/08/15 00:36:30;;;;;;;;;;;;;;;25.29;46.60;99467.31;5387561;32;35537;-66
2022/08/15 00:39:52;;;;;;;;;;;;;;;25.22;46.67;99459.13;5415943;32;35249;-75
2022/08/15 00:42:58;;;;;;;;;;;;;;;25.50;46.11;99458.63;5400301;32;47196;-67
2022/08/15 00:46:01;;;;;;;;;;;;;;;25.58;45.78;99458.59;5407147;32;34452;-66
2022/08/15 00:49:14;;;;;;;;;;;;;;;25.28;46.57;99466.50;5411972;32;34678;-72
2022/08/15 00:52:23;;;;;;;;;;;;;;;25.00;47.12;99470.66;5386150;32;34590;-66
2022/08/15 00:55:31;;;;;;;;;;;;;;;25.87;45.09;99466.78;5403518;32;44936;-76
2022/08/15 00:58:33;;;;;;;;;;;;;;;26.25;44.03;99463.28;5385171;32;34215;-77
2022/08/15 01:01:44;;;;;;;;;;;;;;;25.62;45.56;99478.72;5400426;32;35410;-76
2022/08/15 01:05:05;;;;;;;;;;;;;;;25.12;47.02;99483.56;5408164;32;47286;-65
2022/08/15 01:08:17;;;;;;;;;;;;;;;25.84;45.43;99475.25;5394523;32;35186;-76
2022/08/15 01:11:32;;;;;;;;;;;;;;;25.67;45.86;99468.25;5398130;32;46028;-76
2022/08/15 01:14:35;;;;;;;;;;;;;;;25.71;45.77;99466.91;5371157;32;34989;-74
2022/08/15 01:17:57;;;;;;;;;;;;;;;25.53;46.42;99471.72;5366745;32;34342;-76
2022/08/15 01:21:40;;;;;;;;;;;;;;;25.25;47.03;99472.25;5416178;32;35011;-75
2022/08/15 01:24:47;;;;;;;;;;;;;;;24.58;49.09;99485.22;5398107;32;34680;-67
2022/08/15 01:28:09;;;;;;;;;;;;;;;24.52;49.66;99485.91;5414600;32;35094;-76
2022/08/15 01:31:13;;;;;;;;;;;;;;;24.31;50.35;99484.56;5401244;32;34809;-67
2022/08/15 01:34:16;;;;;;;;;;;;;;;24.66;49.43;99482.50;5398562;32;34634;-66
2022/08/15 01:37:18;;;;;;;;;;;;;;;24.70;49.35;99491.06;5403643;32;35020;-76
2022/08/15 01:40:39;;;;;;;;;;;;;;;24.87;49.16;99484.66;5397592;32;34606;-66
2022/08/15 01:43:59;;;;;;;;;;;;;;;25.94;46.30;99480.34;5416040;32;34761;-75
2022/08/15 01:47:26;;;;;;;;;;;;;;;25.92;46.38;99485.94;5391494;32;35969;-73
2022/08/15 01:50:28;;;;;;;;;;;;;;;25.75;46.95;99483.53;5397226;32;44395;-64
2022/08/15 01:53:33;;;;;;;;;;;;;;;24.95;48.55;99491.84;5418164;32;34233;-75
2022/08/15 01:56:37;;;;;;;;;;;;;;;24.23;50.59;99498.00;5398955;32;34710;-67
2022/08/15 01:59:54;;;;;;;;;;;;;;;24.54;49.80;99495.47;5413795;32;35156;-73
2022/08/15 02:02:56;;;;;;;;;;;;;;;24.01;51.45;99493.31;5403385;32;35429;-76
2022/08/15 02:06:03;;;;;;;;;;;;;;;24.59;50.10;99486.88;5397504;32;45101;-76
2022/08/15 02:09:07;;;;;;;;;;;;;;;24.84;49.33;99482.28;5393160;32;34737;-74
2022/08/15 02:12:35;;;;;;;;;;;;;;;25.12;48.25;99488.09;5377041;32;44922;-66
2022/08/15 02:15:57;;;;;;;;;;;;;;;24.75;48.93;99492.25;5393311;32;35098;-76
2022/08/15 02:19:01;;;;;;;;;;;;;;;25.52;47.12;99484.34;5396134;32;44847;-74
2022/08/15 02:22:13;;;;;;;;;;;;;;;25.74;46.46;99479.19;5381315;32;35673;-68
2022/08/15 02:25:27;;;;;;;;;;;;;;;25.44;46.78;99459.34;5414765;32;34188;-68
2022/08/15 02:28:41;;;;;;;;;;;;;;;24.90;47.83;99478.91;5398035;32;45381;-66
2022/08/15 02:31:45;;;;;;;;;;;;;;;24.54;48.85;99483.91;5411890;32;34273;-75
2022/08/15 02:34:48;;;;;;;;;;;;;;;23.98;50.21;99480.25;5400552;32;34393;-66
2022/08/15 02:37:50;;;;;;;;;;;;;;;24.28;49.44;99474.19;5397615;32;34860;-72
2022/08/15 02:40:59;;;;;;;;;;;;;;;25.31;46.84;99465.28;5414236;32;44489;-76
2022/08/15 02:44:01;;;;;;;;;;;;;;;25.32;46.75;99467.81;5396839;32;33896;-75
2022/08/15 02:47:07;;;;;;;;;;;;;;;24.64;48.46;99468.41;5401345;32;36182;-66
2022/08/15 02:50:10;;;;;;;;;;;;;;;24.63;48.64;99465.91;5397642;32;35549;-65
2022/08/15 02:53:14;;;;;;;;;;;;;;;24.72;48.32;99473.75;5380814;32;34616;-74
2022/08/15 02:56:20;;;;;;;;;;;;;;;24.69;48.26;99473.28;5409115;32;35299;-65
2022/08/15 02:59:22;;;;;;;;;;;;;;;24.28;49.36;99474.19;5395675;32;34623;-67
2022/08/15 03:02:25;;;;;;;;;;;;;;;24.19;49.58;99475.19;5416421;32;35918;-75
2022/08/15 03:05:33;;;;;;;;;;;;;;;24.25;49.52;99476.34;5396605;32;44447;-65
2022/08/15 03:08:35;;;;;;;;;;;;;;;24.71;48.56;99472.09;5393419;32;35602;-66
2022/08/15 03:11:39;;;;;;;;;;;;;;;24.41;49.69;99488.94;5380560;32;35182;-66
2022/08/15 03:14:59;;;;;;;;;;;;;;;24.63;49.09;99482.03;5379623;32;44850;-66
2022/08/15 03:18:03;;;;;;;;;;;;;;;24.20;50.25;99481.38;5379830;32;35305;-64
2022/08/15 03:21:06;;;;;;;;;;;;;;;24.27;49.98;99482.37;5396665;32;35328;-75
2022/08/15 03:24:08;;;;;;;;;;;;;;;24.62;49.24;99485.72;5400007;32;35142;-74
2022/08/15 03:27:10;;;;;;;;;;;;;;;24.25;50.22;99479.03;5385270;32;35739;-65
2022/08/15 03:30:14;;;;;;;;;;;;;;;24.22;50.31;99474.87;5411324;32;34295;-69
2022/08/15 03:33:20;;;;;;;;;;;;;;;25.10;48.04;99469.44;5412886;32;35026;-65
2022/08/15 03:36:45;;;;;;;;;;;;;;;24.75;49.04;99476.13;5398933;32;35161;-67
2022/08/15 03:39:53;;;;;;;;;;;;;;;24.72;49.17;99480.97;5401723;32;34235;-75
2022/08/15 03:43:06;;;;;;;;;;;;;;;24.24;50.46;99480.88;5400551;32;35194;-67
2022/08/15 03:46:16;;;;;;;;;;;;;;;24.59;49.51;99486.88;5394687;32;34973;-75
2022/08/15 03:49:25;;;;;;;;;;;;;;;23.63;52.23;99482.22;5400474;32;35046;-74
2022/08/15 03:52:48;;;;;;;;;;;;;;;23.77;52.03;99489.63;5399294;32;35516;-66
2022/08/15 03:55:52;;;;;;;;;;;;;;;23.82;52.01;99499.00;5416620;32;34097;-73
2022/08/15 03:58:56;;;;;;;;;;;;;;;23.19;54.01;99514.59;5399755;32;35075;-77
2022/08/15 04:01:58;;;;;;;;;;;;;;;23.21;53.97;99512.59;5398206;32;44813;-76
2022/08/15 04:05:01;;;;;;;;;;;;;;;23.75;52.29;99506.88;5404735;32;34991;-66
2022/08/15 04:08:05;;;;;;;;;;;;;;;23.75;52.16;99502.34;5394756;32;35492;-75
2022/08/15 04:11:29;;;;;;;;;;;;;;;24.34;50.74;99507.59;5398879;32;35024;-74
2022/08/15 04:14:38;;;;;;;;;;;;;;;24.93;49.11;99499.25;5399711;32;34750;-73
2022/08/15 04:17:41;;;;;;;;;;;;;;;24.41;49.73;99505.91;5376498;32;34912;-76
2022/08/15 04:21:00;;;;;;;;;;;;;;;23.53;52.80;99516.38;5407100;32;45624;-67
2022/08/15 04:24:02;;;;;;;;;;;;;;;23.56;53.03;99509.81;5399617;32;34125;-66
2022/08/15 04:27:24;;;;;;;;;;;;;;;23.78;52.57;99515.44;5409277;32;35232;-74
2022/08/15 04:30:26;;;;;;;;;;;;;;;24.69;50.09;99503.66;5399615;32;34172;-66
2022/08/15 04:33:29;;;;;;;;;;;;;;;24.92;49.57;99497.53;5399533;32;44236;-75
2022/08/15 04:36:51;;;;;;;;;;;;;;;25.22;48.75;99502.16;5395083;32;35919;-66
2022/08/15 04:39:53;;;;;;;;;;;;;;;24.85;49.80;99508.97;5383272;32;34130;-75
2022/08/15 04:42:55;;;;;;;;;;;;;;;24.03;52.61;99504.72;5418027;32;34323;-75
2022/08/15 04:45:58;;;;;;;;;;;;;;;24.16;52.07;99510.44;5398895;32;44772;-66
2022/08/15 04:49:01;;;;;;;;;;;;;;;25.36;48.73;99503.25;5414843;32;34720;-76
2022/08/15 04:52:10;;;;;;;;;;;;;;;24.91;48.80;99515.50;5387315;32;35337;-76
2022/08/15 04:55:13;;;;;;;;;;;;;;;24.49;49.65;99502.38;5406248;32;35401;-74
2022/08/15 04:58:18;;;;;;;;;;;;;;;25.47;47.13;99499.34;5411722;32;35685;-66
2022/08/15 05:01:40;;;;;;;;;;;;;;;25.73;46.57;99499.03;5385094;32;35412;-75
2022/08/15 05:05:03;;;;;;;;;;;;;;;25.73;46.22;99488.28;5412344;32;45495;-66
2022/08/15 05:08:06;;;;;;;;;;;;;;;26.51;44.18;99490.66;5398003;32;34934;-66
2022/08/15 05:11:16;;;;;;;;;;;;;;;26.85;43.63;99486.56;5395166;32;34940;-66
2022/08/15 05:14:19;;;;;;;;;;;;;;;26.71;43.61;99482.84;5399669;32;35148;-75
2022/08/15 05:17:38;;;;;;;;;;;;;;;28.04;40.38;99483.41;5376257;32;35623;-67
2022/08/15 05:20:59;;;;;;;;;;;;;;;28.01;40.25;99481.06;5413486;32;45105;-66
2022/08/15 05:24:00;;;;;;;;;;;;;;;27.89;40.60;99479.12;5400679;32;34918;-75
2022/08/15 05:27:05;;;;;;;;;;;;;;;28.96;38.15;99477.00;5403192;32;35473;-66
2022/08/15 05:30:10;;;;;;;;;;;;;;;29.78;36.87;99467.94;5398743;32;36274;-72
2022/08/15 05:33:21;;;;;;;;;;;;;;;29.00;37.86;99489.13;5398818;32;34216;-68
2022/08/15 05:36:44;;;;;;;;;;;;;;;29.78;36.48;99480.63;5398866;32;35284;-67
2022/08/15 05:39:46;;;;;;;;;;;;;;;29.39;36.40;99482.19;5390867;32;34985;-72
2022/08/15 05:43:00;;;;;;;;;;;;;;;28.98;37.58;99483.06;5408462;32;34574;-68
2022/08/15 05:46:11;;;;;;;;;;;;;;;28.73;37.95;99476.47;5395945;32;44457;-72
2022/08/15 05:49:53;;;;;;;;;;;;;;;28.71;38.39;99489.31;5390767;32;34163;-74
2022/08/15 05:53:02;;;;;;;;;;;;;;;30.49;35.14;99478.16;5384047;32;33571;-67
2022/08/15 05:56:18;;;;;;;;;;;;;;;30.35;34.64;99485.50;5388817;32;35508;-74
2022/08/15 05:59:22;;;;;;;;;;;;;;;31.00;32.71;99485.59;5383281;32;34289;-73
2022/08/15 06:02:32;;;;;;;;;;;;;;;28.94;37.00;99489.06;5413061;32;34963;-74
2022/08/15 06:05:44;;;;;;;;;;;;;;;29.10;36.89;99481.44;5394039;32;34813;-69
2022/08/15 06:08:47;;;;;;;;;;;;;;;30.13;35.41;99484.84;5412642;32;34339;-87
2022/08/15 06:12:04;;;;;;;;;;;;;;;31.87;31.82;99492.28;5385344;32;45753;-68
2022/08/15 06:15:28;;;;;;;;;;;;;;;31.92;31.96;99487.00;5374215;32;35733;-71
2022/08/15 06:18:34;;;;;;;;;;;;;;;31.14;33.67;99484.47;5383822;32;45597;-73
2022/08/15 06:21:41;;;;;;;;;;;;;;;30.82;34.28;99485.44;5383300;32;34676;-66
2022/08/15 06:24:46;;;;;;;;;;;;;;;33.66;29.40;99474.09;5413819;32;36124;-75
2022/08/15 06:27:52;;;;;;;;;;;;;;;32.48;31.36;99485.34;5400230;32;36634;-79
2022/08/15 06:31:04;;;;;;;;;;;;;;;33.39;29.67;99482.66;5398164;32;46719;-73
2022/08/15 06:34:09;;;;;;;;;;;;;;;31.13;33.77;99490.13;5415042;32;34922;-65
2022/08/15 06:37:42;;;;;;;;;;;;;;;33.57;29.37;99481.78;5397540;32;45906;-71
2022/08/15 06:41:18;;;;;;;;;;;;;;;31.20;33.29;99485.50;5394518;32;44237;-64
2022/08/15 06:44:26;;;;;;;;;;;;;;;33.13;29.84;99488.41;5398244;32;35015;-81
2022/08/15 06:47:31;;;;;;;;;;;;;;;31.63;32.67;99496.59;5397381;32;44731;-73
2022/08/15 06:50:38;;;;;;;;;;;;;;;32.77;30.53;99481.03;5397072;32;35310;-69
2022/08/15 06:53:53;;;;;;;;;;;;;;;32.20;31.46;99486.59;5400772;32;36083;-72
2022/08/15 06:57:03;;;;;;;;;;;;;;;32.62;31.08;99484.13;5407152;32;34830;-70
2022/08/15 07:00:29;;;;;;;;;;;;;;;33.76;29.00;99490.72;5394873;32;44591;-68
2022/08/15 07:03:42;;;;;;;;;;;;;;;34.53;27.96;99481.75;5390897;32;44536;-71
2022/08/15 07:06:45;;;;;;;;;;;;;;;34.05;28.89;99478.13;5398269;32;35228;-84
2022/08/15 07:09:55;;;;;;;;;;;;;;;36.06;26.04;99478.28;5406372;32;33802;-70
2022/08/15 07:13:00;;;;;;;;;;;;;;;35.12;27.04;99482.50;5395442;32;34114;-75
2022/08/15 07:16:12;;;;;;;;;;;;;;;36.39;24.82;99473.94;5378828;32;44564;-74
2022/08/15 07:19:20;;;;;;;;;;;;;;;34.32;27.74;99477.66;5394051;32;35588;-67
2022/08/15 07:22:23;;;;;;;;;;;;;;;33.51;29.34;99490.03;5407516;32;35357;-75
2022/08/15 07:25:36;;;;;;;;;;;;;;;33.50;29.53;99488.38;5400412;32;44496;-69
2022/08/15 07:28:41;;;;;;;;;;;;;;;32.71;30.59;99488.22;5404434;32;35207;-69
2022/08/15 07:31:46;;;;;;;;;;;;;;;30.50;34.79;99490.66;5389942;32;34503;-72
2022/08/15 07:35:14;;;;;;;;;;;;;;;30.96;34.09;99497.91;5382955;32;36059;-72
2022/08/15 07:38:16;;;;;;;;;;;;;;;32.80;31.13;99488.75;5410096;32;35700;-71
2022/08/15 07:41:27;;;;;;;;;;;;;;;33.15;30.61;99486.28;5377231;32;33995;-67
2022/08/15 07:44:30;;;;;;;;;;;;;;;34.46;28.62;99474.53;5405360;32;48160;-80
2022/08/15 07:47:36;;;;;;;;;;;;;;;35.37;26.81;99477.56;5403740;32;34543;-82
2022/08/15 07:50:43;;;;;;;;;;;;;;;33.20;29.67;99483.72;5395710;32;35384;-68
2022/08/15 07:53:59;;;;;;;;;;;;;;;33.75;29.18;99474.59;5399009;32;36218;-63
2022/08/15 07:57:07;;;;;;;;;;;;;;;34.80;27.70;99482.09;5400068;32;44187;-65
2022/08/15 08:00:31;;;;;;;;;;;;;;;32.70;30.99;99486.56;5385674;32;45525;-69
2022/08/15 08:03:47;;;;;;;;;;;;;;;32.57;31.45;99486.69;5383250;32;34013;-70
2022/08/15 08:06:58;;;;;;;;;;;;;;;33.54;29.53;99493.13;5386005;32;35289;-70
2022/08/15 08:10:04;;;;;;;;;;;;;;;32.90;30.49;99489.09;5404864;32;46278;-68
2022/08/15 08:13:34;;;;;;;;;;;;;;;33.75;29.60;99490.94;5386354;32;34523;-71
2022/08/15 08:17:00;;;;;;;;;;;;;;;34.54;27.99;99484.25;5371599;32;32687;-70
2022/08/15 08:20:22;;;;;;;;;;;;;;;33.23;29.72;99485.97;5417217;32;46953;-70
2022/08/15 08:23:27;;;;;;;;;;;;;;;33.56;29.10;99488.28;5402086;32;34228;-70
2022/08/15 08:26:45;;;;;;;;;;;;;;;36.03;25.49;99480.72;5391461;32;47110;-65
2022/08/15 08:30:07;;;;;;;;;;;;;;;35.80;25.60;99481.63;5383064;32;35533;-65
2022/08/15 08:37:31;;;;;;;;;;;;;;;36.18;24.66;99483.69;5416179;32;35190;-63
2022/08/15 08:44:24;;;;;;;;;;;;;;;36.28;24.38;99483.03;5401293;32;34279;-72
2022/08/15 08:47:44;;;;;;;;;;;;;;;36.04;24.43;99485.91;5403354;32;34894;-65
2022/08/15 08:50:49;;;;;;;;;;;;;;;37.17;22.74;99487.59;5403338;32;34508;-67
2022/08/15 08:53:51;;;;;;;;;;;;;;;37.00;22.71;99482.19;5383686;32;34067;-77
2022/08/15 08:57:00;;;;;;;;;;;;;;;36.29;23.61;99479.22;5416158;32;44810;-67
2022/08/15 09:00:02;;;;;;;;;;;;;;;36.48;23.06;99480.63;5397739;32;36245;-67
2022/08/15 09:03:18;;;;;;;;;;;;;;;35.76;24.51;99470.38;5414126;32;35531;-66
2022/08/15 09:06:25;;;;;;;;;;;;;;;37.81;22.01;99471.34;5404728;32;34165;-75
2022/08/15 09:09:29;;;;;;;;;;;;;;;38.69;21.13;99464.31;5388350;32;44491;-71
2022/08/15 09:16:19;;;;;;;;;;;;;;;37.43;22.57;99464.09;5386010;32;44495;-68
2022/08/15 09:19:36;;;;;;;;;;;;;;;39.72;19.46;99463.62;5412277;32;35299;-69
2022/08/15 09:22:39;;;;;;;;;;;;;;;38.33;21.05;99457.78;5390746;32;34322;-78
2022/08/15 09:25:49;;;;;;;;;;;;;;;38.24;20.68;99458.50;5386703;32;34429;-72
2022/08/15 09:28:59;;;;;;;;;;;;;;;39.85;19.06;99451.25;5407466;32;34985;-70
2022/08/15 09:32:02;;;;;;;;;;;;;;;39.41;19.56;99450.88;5405515;32;44250;-73
2022/08/15 09:35:35;;;;;;;;;;;;;;;38.85;20.08;99445.22;5410208;32;34308;-77
2022/08/15 09:39:00;;;;;;;;;;;;;;;42.03;16.79;99434.97;5401908;32;34867;-65
2022/08/15 09:42:23;;;;;;;;;;;;;;;38.38;19.99;99432.28;5401413;32;45560;-63
2022/08/15 09:45:43;;;;;;;;;;;;;;;41.32;16.67;99435.50;5409090;32;35459;-65
2022/08/15 09:48:47;;;;;;;;;;;;;;;38.59;19.00;99436.00;5392790;32;34615;-73
2022/08/15 09:52:11;;;;;;;;;;;;;;;40.37;17.71;99430.03;5408660;32;35779;-65
2022/08/15 09:55:34;;;;;;;;;;;;;;;39.52;18.10;99430.56;5404549;32;34595;-68
2022/08/15 09:58:38;;;;;;;;;;;;;;;41.48;16.40;99427.94;5403020;32;34359;-70
2022/08/15 10:01:43;;;;;;;;;;;;;;;42.62;15.78;99419.22;5411483;32;34376;-62
2022/08/15 10:04:57;;;;;;;;;;;;;;;41.16;17.07;99420.13;5398459;32;35116;-70
2022/08/15 10:08:00;;;;;;;;;;;;;;;41.32;16.99;99414.28;5387173;32;44612;-70
2022/08/15 10:11:10;;;;;;;;;;;;;;;42.55;15.71;99404.91;5384084;32;34140;-73
2022/08/15 10:14:21;;;;;;;;;;;;;;;41.68;16.76;99400.22;5403969;32;34278;-73
2022/08/15 10:17:33;;;;;;;;;;;;;;;42.91;15.54;99395.09;5376045;32;34527;-66
2022/08/15 10:20:40;;;;;;;;;;;;;;;40.40;17.98;99391.78;5402518;32;36415;-69
2022/08/15 10:23:43;;;;;;;;;;;;;;;41.44;16.59;99386.34;5408210;32;34322;-66
2022/08/15 10:27:15;;;;;;;;;;;;;;;40.94;16.25;99391.03;5414622;32;44439;-73
2022/08/15 10:30:18;;;;;;;;;;;;;;;42.61;14.64;99384.44;5389475;32;34388;-71
2022/08/15 10:33:42;;;;;;;;;;;;;;;40.29;16.84;99384.63;5409964;32;34541;-68
2022/08/15 10:37:09;;;;;;;;;;;;;;;40.64;16.13;99386.47;5390111;32;43273;-74
2022/08/15 10:40:20;;;;;;;;;;;;;;;40.88;16.15;99387.47;5385769;32;35490;-73
2022/08/15 10:43:29;;;;;;;;;;;;;;;43.08;13.70;99383.53;5411644;32;43437;-67
2022/08/15 10:47:27;;;;;;;;;;;;;;;42.78;13.43;99384.78;5406271;32;34306;-72
2022/08/15 10:50:49;;;;;;;;;;;;;;;40.13;16.01;99385.78;5323812;32;36431;-81
2022/08/15 10:53:53;;;;;;;;;;;;;;;38.11;18.25;99378.31;5411402;32;36982;-68
2022/08/15 10:56:55;;;;;;;;;;;;;;;37.22;19.50;99375.31;5403500;32;35290;-68
2022/08/15 11:00:10;;;;;;;;;;;;;;;36.89;20.41;99368.94;5414123;32;34708;-66
2022/08/15 11:03:38;;;;;;;;;;;;;;;36.97;20.62;99371.25;5401723;32;44965;-66
2022/08/15 11:07:03;;;;;;;;;;;;;;;36.83;20.74;99372.69;5390056;32;44835;-71
2022/08/15 11:10:09;;;;;;;;;;;;;;;37.23;19.83;99371.50;5413651;32;35686;-70
2022/08/15 11:13:23;;;;;;;;;;;;;;;38.20;19.31;99376.75;5388827;32;33951;-67
2022/08/15 11:16:46;;;;;;;;;;;;;;;39.28;18.23;99359.63;5380103;32;34267;-69
2022/08/15 11:19:51;;;;;;;;;;;;;;;39.03;18.10;99362.28;5403012;32;37779;-68
2022/08/15 11:23:10;;;;;;;;;;;;;;;41.25;15.77;99352.28;5380606;32;34625;-69
2022/08/15 11:26:13;;;;;;;;;;;;;;;41.66;15.38;99344.50;5399698;32;35400;-73
2022/08/15 11:29:24;;;;;;;;;;;;;;;42.07;14.65;99341.41;5376860;32;34405;-74
2022/08/15 11:32:36;;;;;;;;;;;;;;;43.29;13.43;99339.84;5410140;32;34014;-64
2022/08/15 11:35:41;;;;;;;;;;;;;;;42.56;13.70;99348.56;5392197;32;34358;-68
2022/08/15 11:38:52;;;;;;;;;;;;;;;42.78;12.97;99342.50;5401195;32;35116;-68
2022/08/15 11:42:17;;;;;;;;;;;;;;;42.25;14.19;99342.59;5405180;32;35422;-67
2022/08/15 11:45:20;;;;;;;;;;;;;;;41.74;14.54;99337.59;5400711;32;35184;-68
2022/08/15 11:48:28;;;;;;;;;;;;;;;40.84;15.34;99345.06;5389022;32;33964;-72
2022/08/15 11:51:44;;;;;;;;;;;;;;;40.62;14.87;99338.28;5395512;32;46034;-78
2022/08/15 11:55:18;;;;;;;;;;;;;;;42.04;14.13;99322.66;5394880;32;44879;-71
2022/08/15 11:58:29;;;;;;;;;;;;;;;44.25;12.38;99328.19;5408558;32;35272;-69
2022/08/15 12:01:32;;;;;;;;;;;;;;;44.88;12.03;99324.66;5399820;32;35914;-73
2022/08/15 12:04:35;;;;;;;;;;;;;;;41.77;14.43;99324.03;5397235;32;34286;-76
2022/08/15 12:07:59;;;;;;;;;;;;;;;45.04;11.55;99314.06;5403482;32;43407;-77
2022/08/15 12:11:21;;;;;;;;;;;;;;;43.54;12.80;99308.19;5399528;32;35415;-74
2022/08/15 12:14:24;;;;;;;;;;;;;;;43.29;13.25;99309.44;5418469;32;36502;-74
2022/08/15 12:17:31;;;;;;;;;;;;;;;43.41;13.01;99306.19;5354326;32;46303;-69
2022/08/15 12:20:59;;;;;;;;;;;;;;;44.70;11.73;99300.66;5389485;32;36851;-60
2022/08/15 12:24:02;;;;;;;;;;;;;;;41.82;14.00;99315.72;5413151;32;44298;-61
2022/08/15 12:27:07;;;;;;;;;;;;;;;40.30;15.48;99315.53;5399513;32;34754;-82
2022/08/15 12:30:16;;;;;;;;;;;;;;;40.44;15.08;99313.00;5403399;32;35087;-72
2022/08/15 12:33:27;;;;;;;;;;;;;;;39.70;15.97;99306.31;5401919;32;34024;-68
2022/08/15 12:36:30;;;;;;;;;;;;;;;41.85;14.21;99289.47;5388487;32;45429;-69
2022/08/15 12:39:59;;;;;;;;;;;;;;;43.78;12.22;99292.28;5404414;32;34447;-69
2022/08/15 12:43:01;;;;;;;;;;;;;;;42.80;12.71;99290.53;5403193;32;46495;-73
2022/08/15 12:46:03;;;;;;;;;;;;;;;41.98;13.15;99293.47;5413531;32;34586;-71
2022/08/15 12:49:06;;;;;;;;;;;;;;;39.96;15.09;99293.34;5400522;32;34216;-71
2022/08/15 12:52:09;;;;;;;;;;;;;;;39.16;15.90;99286.78;5411879;32;33244;-71
2022/08/15 12:55:12;;;;;;;;;;;;;;;37.78;17.19;99286.22;5394428;32;35613;-73
2022/08/15 12:58:16;;;;;;;;;;;;;;;35.71;19.33;99291.81;5403918;32;34736;-64
2022/08/15 13:01:18;;;;;;;;;;;;;;;35.58;18.97;99278.50;5412941;32;34378;-69
2022/08/15 13:04:32;;;;;;;;;;;;;;;36.28;17.76;99294.28;5404864;32;44645;-71
2022/08/15 13:07:54;;;;;;;;;;;;;;;36.71;16.67;99288.00;5400807;32;35758;-73
2022/08/15 13:11:17;;;;;;;;;;;;;;;36.63;18.19;99295.81;5413301;32;35797;-72
2022/08/15 13:14:20;;;;;;;;;;;;;;;36.35;18.55;99278.50;5393736;32;35296;-74
2022/08/15 13:17:25;;;;;;;;;;;;;;;35.96;19.01;99286.75;5387711;32;34850;-71
2022/08/15 13:24:08;;;;;;;;;;;;;;;35.43;20.25;99282.66;5411154;32;35797;-73
2022/08/15 13:27:21;;;;;;;;;;;;;;;36.01;19.70;99278.63;5399642;32;34037;-73
2022/08/15 13:30:23;;;;;;;;;;;;;;;35.31;20.59;99273.69;5385024;32;33556;-76
2022/08/15 13:33:42;;;;;;;;;;;;;;;35.22;20.81;99264.22;5410753;32;34355;-68
2022/08/15 13:36:55;;;;;;;;;;;;;;;35.23;20.53;99255.81;5386521;32;33703;-69
2022/08/15 13:40:00;;;;;;;;;;;;;;;35.95;19.98;99246.81;5403080;32;44723;-67
2022/08/15 13:43:06;;;;;;;;;;;;;;;36.18;19.74;99247.63;5394660;32;35590;-70
2022/08/15 13:46:14;;;;;;;;;;;;;;;36.11;19.97;99244.28;5399198;32;34899;-76
2022/08/15 13:49:30;;;;;;;;;;;;;;;35.61;20.40;99247.94;5401240;32;45005;-67
2022/08/15 13:52:32;;;;;;;;;;;;;;;35.76;19.88;99239.97;5404224;32;37090;-69
2022/08/15 13:55:52;;;;;;;;;;;;;;;35.66;20.14;99234.34;5407137;32;34484;-71
2022/08/15 13:58:54;;;;;;;;;;;;;;;35.23;20.70;99230.38;5410748;32;35710;-71
2022/08/15 14:02:01;;;;;;;;;;;;;;;36.40;18.98;99243.03;5406243;32;44007;-71
2022/08/15 14:05:23;;;;;;;;;;;;;;;34.77;20.96;99242.38;5403306;32;35928;-68
2022/08/15 14:08:26;;;;;;;;;;;;;;;35.62;20.06;99228.56;5407160;32;34104;-68
2022/08/15 14:11:49;;;;;;;;;;;;;;;35.44;20.54;99235.12;5393081;32;35332;-64
2022/08/15 14:14:59;;;;;;;;;;;;;;;35.48;20.42;99229.97;5413276;32;46364;-66
2022/08/15 14:18:07;;;;;;;;;;;;;;;35.78;20.06;99235.06;5379897;32;34195;-70
2022/08/15 14:21:29;;;;;;;;;;;;;;;35.49;20.32;99227.00;5412674;32;44948;-64
2022/08/15 14:24:32;;;;;;;;;;;;;;;35.60;20.27;99235.34;5405832;32;35407;-68
2022/08/15 14:27:55;;;;;;;;;;;;;;;35.46;20.36;99235.69;5402836;32;35292;-73
2022/08/15 14:30:57;;;;;;;;;;;;;;;35.12;20.84;99226.66;5417524;32;35068;-69
2022/08/15 14:34:20;;;;;;;;;;;;;;;34.60;19.52;99234.19;5396369;32;35506;-67
2022/08/15 14:37:46;;;;;;;;;;;;;;;35.59;17.67;99231.78;5412557;32;34902;-74
2022/08/15 14:40:48;;;;;;;;;;;;;;;35.67;18.01;99233.25;5402385;32;35571;-71
2022/08/15 14:43:51;;;;;;;;;;;;;;;34.42;18.37;99227.00;5404727;32;36082;-68
2022/08/15 14:46:54;;;;;;;;;;;;;;;35.34;18.60;99231.37;5414625;32;34060;-75
2022/08/15 14:49:56;;;;;;;;;;;;;;;35.25;19.08;99228.25;5401758;32;34011;-73
2022/08/15 14:53:21;;;;;;;;;;;;;;;34.67;19.83;99229.41;5413211;32;35846;-72
2022/08/15 14:56:24;;;;;;;;;;;;;;;34.36;19.98;99231.50;5389045;32;34194;-67
2022/08/15 14:59:34;;;;;;;;;;;;;;;34.28;20.23;99234.62;5406600;32;45122;-73
2022/08/15 15:02:56;;;;;;;;;;;;;;;34.36;20.54;99234.22;5412605;32;35291;-72
2022/08/15 15:06:04;;;;;;;;;;;;;;;34.20;21.06;99235.00;5388195;32;44458;-70
2022/08/15 15:09:28;;;;;;;;;;;;;;;34.21;21.27;99233.94;5405885;32;35676;-67
2022/08/15 15:12:33;;;;;;;;;;;;;;;34.25;21.34;99231.53;5398476;32;44537;-69
2022/08/15 15:15:46;;;;;;;;;;;;;;;34.29;21.58;99230.81;5367779;32;36655;-78
2022/08/15 15:19:09;;;;;;;;;;;;;;;34.16;21.60;99231.09;5405171;32;34821;-73
2022/08/15 15:22:12;;;;;;;;;;;;;;;33.99;22.30;99235.62;5402300;32;34348;-71
2022/08/15 15:25:19;;;;;;;;;;;;;;;34.33;21.45;99233.88;5401240;32;34409;-72
2022/08/15 15:28:23;;;;;;;;;;;;;;;34.62;21.01;99232.03;5378224;32;36637;-74
2022/08/15 15:31:42;;;;;;;;;;;;;;;34.21;21.45;99233.94;5400610;32;37759;-73
2022/08/15 15:34:44;;;;;;;;;;;;;;;33.63;22.55;99221.22;5415938;32;34123;-70
2022/08/15 15:37:47;;;;;;;;;;;;;;;33.74;22.50;99223.06;5405796;32;34185;-71
2022/08/15 15:40:49;;;;;;;;;;;;;;;33.73;22.37;99232.31;5419944;32;35506;-83
2022/08/15 15:43:51;;;;;;;;;;;;;;;34.72;21.22;99224.88;5405755;32;34359;-71
2022/08/15 15:46:57;;;;;;;;;;;;;;;34.61;21.32;99227.66;5413458;32;34279;-69
2022/08/15 15:50:04;;;;;;;;;;;;;;;34.09;21.95;99224.97;5409643;32;45373;-67
2022/08/15 15:53:28;;;;;;;;;;;;;;;34.06;22.13;99225.44;5390481;32;34336;-69
2022/08/15 15:56:30;;;;;;;;;;;;;;;34.00;22.40;99221.75;5399089;32;42952;-71
2022/08/15 15:59:39;;;;;;;;;;;;;;;34.01;22.39;99209.81;5382450;32;34837;-68
2022/08/15 16:03:01;;;;;;;;;;;;;;;33.42;22.94;99218.00;5393750;32;44698;-68
2022/08/15 16:06:07;;;;;;;;;;;;;;;33.73;22.62;99220.59;5408714;32;35087;-69
2022/08/15 16:09:29;;;;;;;;;;;;;;;33.82;22.56;99211.00;5390510;32;44983;-69
2022/08/15 16:12:32;;;;;;;;;;;;;;;34.12;21.97;99206.19;5417195;32;34710;-71
2022/08/15 16:15:55;;;;;;;;;;;;;;;33.80;22.38;99218.56;5392110;32;35485;-72
2022/08/15 16:19:05;;;;;;;;;;;;;;;33.74;22.65;99219.53;5378336;32;43720;-68
2022/08/15 16:22:27;;;;;;;;;;;;;;;33.73;22.55;99204.25;5420856;32;35069;-70
2022/08/15 16:25:37;;;;;;;;;;;;;;;33.97;22.06;99218.69;5412029;32;44819;-72
2022/08/15 16:28:51;;;;;;;;;;;;;;;33.90;22.46;99218.81;5424363;32;35469;-72
2022/08/15 16:31:55;;;;;;;;;;;;;;;33.69;22.58;99220.25;5396987;32;34345;-71
2022/08/15 16:34:57;;;;;;;;;;;;;;;33.73;22.29;99218.69;5401291;32;36403;-72
2022/08/15 16:38:06;;;;;;;;;;;;;;;33.81;22.25;99204.69;5408248;32;44584;-70
2022/08/15 16:41:34;;;;;;;;;;;;;;;33.32;23.09;99217.75;5401957;32;46325;-71
2022/08/15 16:44:41;;;;;;;;;;;;;;;33.79;22.35;99217.75;5427110;32;34925;-70
2022/08/15 16:47:43;;;;;;;;;;;;;;;33.30;23.16;99219.88;5392896;32;34599;-70
2022/08/15 16:50:46;;;;;;;;;;;;;;;33.79;22.65;99223.19;5424424;32;34831;-71